sensor_id;sensor_type;location;lat;lon;timestamp;temperature;humidity
40123;DHT22;25832;45.490;4.912;2024-01-30T00:01:16;8.80;99.90
40123;DHT22;25832;45.490;4.912;2024-01-30T00:03:41;8.80;99.90
40123;DHT22;25832;45.490;4.912;2024-01-30T00:06:08;8.70;99.90
40123;DHT22;25832;45.490;4.912;2024-01-30T00:08:34;8.80;99.90
40123;DHT22;25832;45.490;4.912;2024-01-30T00:10:59;8.70;99.90
40123;DHT22;25832;45.490;4.912;2024-01-30T00:13:27;8.70;99.90
40123;DHT22;25832;45.490;4.912;2024-01-30T00:15:52;8.70;99.90
40123;DHT22;25832;45.490;4.912;2024-01-30T00:18:19;8.70;99.90
40123;DHT22;25832;45.490;4.912;2024-01-30T00:20:45;8.70;99.90
40123;DHT22;25832;45.490;4.912;2024-01-30T00:23:10;8.60;99.90
40123;DHT22;25832;45.490;4.912;2024-01-30T00:25:36;8.60;99.90
40123;DHT22;25832;45.490;4.912;2024-01-30T00:28:02;8.60;99.90
40123;DHT22;25832;45.490;4.912;2024-01-30T00:30:27;8.60;99.90
40123;DHT22;25832;45.490;4.912;2024-01-30T00:32:54;8.60;99.90
40123;DHT22;25832;45.490;4.912;2024-01-30T00:35:19;8.60;99.90
40123;DHT22;25832;45.490;4.912;2024-01-30T00:37:47;8.50;99.90
40123;DHT22;25832;45.490;4.912;2024-01-30T00:40:13;8.60;99.90
40123;DHT22;25832;45.490;4.912;2024-01-30T00:42:42;8.60;99.90
40123;DHT22;25832;45.490;4.912;2024-01-30T00:45:14;8.60;99.90
40123;DHT22;25832;45.490;4.912;2024-01-30T00:47:40;8.60;99.90
40123;DHT22;25832;45.490;4.912;2024-01-30T00:50:06;8.60;99.90
40123;DHT22;25832;45.490;4.912;2024-01-30T00:52:32;8.60;99.90
40123;DHT22;25832;45.490;4.912;2024-01-30T00:55:01;8.60;99.90
40123;DHT22;25832;45.490;4.912;2024-01-30T00:57:28;8.60;99.90
40123;DHT22;25832;45.490;4.912;2024-01-30T00:59:54;8.60;99.90
40123;DHT22;25832;45.490;4.912;2024-01-30T01:02:20;8.60;99.90
40123;DHT22;25832;45.490;4.912;2024-01-30T01:04:45;8.60;99.90
40123;DHT22;25832;45.490;4.912;2024-01-30T01:07:11;8.50;99.90
40123;DHT22;25832;45.490;4.912;2024-01-30T01:09:37;8.50;99.90
40123;DHT22;25832;45.490;4.912;2024-01-30T01:12:03;8.50;99.90
40123;DHT22;25832;45.490;4.912;2024-01-30T01:14:30;8.50;99.90
40123;DHT22;25832;45.490;4.912;2024-01-30T01:16:55;8.50;99.90
40123;DHT22;25832;45.490;4.912;2024-01-30T01:19:21;8.50;99.90
40123;DHT22;25832;45.490;4.912;2024-01-30T01:21:47;8.50;99.90
40123;DHT22;25832;45.490;4.912;2024-01-30T01:24:13;8.50;99.90
40123;DHT22;25832;45.490;4.912;2024-01-30T01:26:39;8.50;99.90
40123;DHT22;25832;45.490;4.912;2024-01-30T01:29:05;8.50;99.90
40123;DHT22;25832;45.490;4.912;2024-01-30T01:31:36;8.50;99.90
40123;DHT22;25832;45.490;4.912;2024-01-30T01:34:05;8.50;99.90
40123;DHT22;25832;45.490;4.912;2024-01-30T01:36:31;8.50;99.90
40123;DHT22;25832;45.490;4.912;2024-01-30T01:38:57;8.50;99.90
40123;DHT22;25832;45.490;4.912;2024-01-30T01:41:22;8.50;99.90
40123;DHT22;25832;45.490;4.912;2024-01-30T01:43:48;8.50;99.90
40123;DHT22;25832;45.490;4.912;2024-01-30T01:46:14;8.60;99.90
40123;DHT22;25832;45.490;4.912;2024-01-30T01:48:39;8.60;99.90
40123;DHT22;25832;45.490;4.912;2024-01-30T01:51:06;8.60;99.90
40123;DHT22;25832;45.490;4.912;2024-01-30T01:53:32;8.50;99.90
40123;DHT22;25832;45.490;4.912;2024-01-30T01:55:58;8.60;99.90
40123;DHT22;25832;45.490;4.912;2024-01-30T01:58:27;8.50;99.90
40123;DHT22;25832;45.490;4.912;2024-01-30T02:00:56;8.50;99.90
40123;DHT22;25832;45.490;4.912;2024-01-30T02:03:23;8.50;99.90
40123;DHT22;25832;45.490;4.912;2024-01-30T02:05:50;8.50;99.90
40123;DHT22;25832;45.490;4.912;2024-01-30T02:08:16;8.50;99.90
40123;DHT22;25832;45.490;4.912;2024-01-30T02:10:42;8.50;99.90
40123;DHT22;25832;45.490;4.912;2024-01-30T02:13:08;8.50;99.90
40123;DHT22;25832;45.490;4.912;2024-01-30T02:15:33;8.60;99.90
40123;DHT22;25832;45.490;4.912;2024-01-30T02:17:59;8.60;99.90
40123;DHT22;25832;45.490;4.912;2024-01-30T02:20:25;8.50;99.90
40123;DHT22;25832;45.490;4.912;2024-01-30T02:22:54;8.50;99.90
40123;DHT22;25832;45.490;4.912;2024-01-30T02:25:30;8.50;99.90
40123;DHT22;25832;45.490;4.912;2024-01-30T02:27:56;8.60;99.90
40123;DHT22;25832;45.490;4.912;2024-01-30T02:30:22;8.60;99.90
40123;DHT22;25832;45.490;4.912;2024-01-30T02:32:48;8.60;99.90
40123;DHT22;25832;45.490;4.912;2024-01-30T02:35:13;8.60;99.90
40123;DHT22;25832;45.490;4.912;2024-01-30T02:37:39;8.60;99.90
40123;DHT22;25832;45.490;4.912;2024-01-30T02:40:05;8.70;99.90
40123;DHT22;25832;45.490;4.912;2024-01-30T02:42:31;8.70;99.90
40123;DHT22;25832;45.490;4.912;2024-01-30T02:44:56;8.70;99.90
40123;DHT22;25832;45.490;4.912;2024-01-30T02:47:22;8.70;99.90
40123;DHT22;25832;45.490;4.912;2024-01-30T02:49:47;8.80;99.90
40123;DHT22;25832;45.490;4.912;2024-01-30T02:52:13;8.80;99.90
40123;DHT22;25832;45.490;4.912;2024-01-30T02:54:39;8.80;99.90
40123;DHT22;25832;45.490;4.912;2024-01-30T02:57:04;8.80;99.90
40123;DHT22;25832;45.490;4.912;2024-01-30T02:59:30;8.80;99.90
40123;DHT22;25832;45.490;4.912;2024-01-30T03:01:58;8.80;99.90
40123;DHT22;25832;45.490;4.912;2024-01-30T03:04:24;8.70;99.90
40123;DHT22;25832;45.490;4.912;2024-01-30T03:06:50;8.70;99.90
40123;DHT22;25832;45.490;4.912;2024-01-30T03:09:16;8.70;99.90
40123;DHT22;25832;45.490;4.912;2024-01-30T03:11:43;8.70;99.90
40123;DHT22;25832;45.490;4.912;2024-01-30T03:14:08;8.70;99.90
40123;DHT22;25832;45.490;4.912;2024-01-30T03:16:37;8.70;99.90
40123;DHT22;25832;45.490;4.912;2024-01-30T03:19:03;8.80;99.90
40123;DHT22;25832;45.490;4.912;2024-01-30T03:21:29;8.70;99.90
40123;DHT22;25832;45.490;4.912;2024-01-30T03:23:55;8.80;99.90
40123;DHT22;25832;45.490;4.912;2024-01-30T03:26:20;8.70;99.90
40123;DHT22;25832;45.490;4.912;2024-01-30T03:28:46;8.70;99.90
40123;DHT22;25832;45.490;4.912;2024-01-30T03:31:15;8.60;99.90
40123;DHT22;25832;45.490;4.912;2024-01-30T03:33:41;8.60;99.90
40123;DHT22;25832;45.490;4.912;2024-01-30T03:36:08;8.60;99.90
40123;DHT22;25832;45.490;4.912;2024-01-30T03:38:34;8.60;99.90
40123;DHT22;25832;45.490;4.912;2024-01-30T03:41:00;8.50;99.90
40123;DHT22;25832;45.490;4.912;2024-01-30T03:43:26;8.50;99.90
40123;DHT22;25832;45.490;4.912;2024-01-30T03:45:51;8.50;99.90
40123;DHT22;25832;45.490;4.912;2024-01-30T03:48:17;8.50;99.90
40123;DHT22;25832;45.490;4.912;2024-01-30T03:50:43;8.50;99.90
40123;DHT22;25832;45.490;4.912;2024-01-30T03:53:09;8.50;99.90
40123;DHT22;25832;45.490;4.912;2024-01-30T03:55:34;8.50;99.90
40123;DHT22;25832;45.490;4.912;2024-01-30T03:58:00;8.50;99.90
40123;DHT22;25832;45.490;4.912;2024-01-30T04:00:25;8.50;99.90
40123;DHT22;25832;45.490;4.912;2024-01-30T04:02:51;8.40;99.90
40123;DHT22;25832;45.490;4.912;2024-01-30T04:05:17;8.40;99.90
40123;DHT22;25832;45.490;4.912;2024-01-30T04:07:42;8.40;99.90
40123;DHT22;25832;45.490;4.912;2024-01-30T04:10:09;8.40;99.90
40123;DHT22;25832;45.490;4.912;2024-01-30T04:12:35;8.40;99.90
40123;DHT22;25832;45.490;4.912;2024-01-30T04:15:01;8.40;99.90
40123;DHT22;25832;45.490;4.912;2024-01-30T04:17:26;8.40;99.90
40123;DHT22;25832;45.490;4.912;2024-01-30T04:19:54;8.40;99.90
40123;DHT22;25832;45.490;4.912;2024-01-30T04:22:20;8.30;99.90
40123;DHT22;25832;45.490;4.912;2024-01-30T04:24:46;8.30;99.90
40123;DHT22;25832;45.490;4.912;2024-01-30T04:27:11;8.30;99.90
40123;DHT22;25832;45.490;4.912;2024-01-30T04:29:37;8.20;99.90
40123;DHT22;25832;45.490;4.912;2024-01-30T04:32:03;8.20;99.90
40123;DHT22;25832;45.490;4.912;2024-01-30T04:34:29;8.20;99.90
40123;DHT22;25832;45.490;4.912;2024-01-30T04:36:55;8.10;99.90
40123;DHT22;25832;45.490;4.912;2024-01-30T04:39:20;8.10;99.90
40123;DHT22;25832;45.490;4.912;2024-01-30T04:41:46;8.10;99.90
40123;DHT22;25832;45.490;4.912;2024-01-30T04:44:11;8.00;99.90
40123;DHT22;25832;45.490;4.912;2024-01-30T04:46:37;8.00;99.90
40123;DHT22;25832;45.490;4.912;2024-01-30T04:49:03;8.00;99.90
40123;DHT22;25832;45.490;4.912;2024-01-30T04:51:29;7.90;99.90
40123;DHT22;25832;45.490;4.912;2024-01-30T04:53:55;8.00;99.90
40123;DHT22;25832;45.490;4.912;2024-01-30T04:56:21;8.00;99.90
40123;DHT22;25832;45.490;4.912;2024-01-30T04:58:47;7.90;99.90
40123;DHT22;25832;45.490;4.912;2024-01-30T05:01:19;7.80;99.90
40123;DHT22;25832;45.490;4.912;2024-01-30T05:03:44;7.80;99.90
40123;DHT22;25832;45.490;4.912;2024-01-30T05:06:10;7.80;99.90
40123;DHT22;25832;45.490;4.912;2024-01-30T05:08:36;7.80;99.90
40123;DHT22;25832;45.490;4.912;2024-01-30T05:11:05;7.80;99.90
40123;DHT22;25832;45.490;4.912;2024-01-30T05:13:31;7.70;99.90
40123;DHT22;25832;45.490;4.912;2024-01-30T05:15:57;7.70;99.90
40123;DHT22;25832;45.490;4.912;2024-01-30T05:18:23;7.70;99.90
40123;DHT22;25832;45.490;4.912;2024-01-30T05:20:50;7.80;99.90
40123;DHT22;25832;45.490;4.912;2024-01-30T05:23:16;7.80;99.90
40123;DHT22;25832;45.490;4.912;2024-01-30T05:25:41;7.90;99.90
40123;DHT22;25832;45.490;4.912;2024-01-30T05:28:07;7.90;99.90
40123;DHT22;25832;45.490;4.912;2024-01-30T05:30:32;7.80;99.90
40123;DHT22;25832;45.490;4.912;2024-01-30T05:32:58;7.80;99.90
40123;DHT22;25832;45.490;4.912;2024-01-30T05:35:24;7.80;99.90
40123;DHT22;25832;45.490;4.912;2024-01-30T05:37:51;7.80;99.90
40123;DHT22;25832;45.490;4.912;2024-01-30T05:40:16;7.80;99.90
40123;DHT22;25832;45.490;4.912;2024-01-30T05:42:42;7.80;99.90
40123;DHT22;25832;45.490;4.912;2024-01-30T05:45:08;7.80;99.90
40123;DHT22;25832;45.490;4.912;2024-01-30T05:47:34;7.70;99.90
40123;DHT22;25832;45.490;4.912;2024-01-30T05:50:00;7.70;99.90
40123;DHT22;25832;45.490;4.912;2024-01-30T05:52:26;7.70;99.90
40123;DHT22;25832;45.490;4.912;2024-01-30T05:54:52;7.70;99.90
40123;DHT22;25832;45.490;4.912;2024-01-30T05:57:17;7.70;99.90
40123;DHT22;25832;45.490;4.912;2024-01-30T05:59:44;7.70;99.90
40123;DHT22;25832;45.490;4.912;2024-01-30T06:02:10;7.70;99.90
40123;DHT22;25832;45.490;4.912;2024-01-30T06:04:36;7.60;99.90
40123;DHT22;25832;45.490;4.912;2024-01-30T06:07:02;7.60;99.90
40123;DHT22;25832;45.490;4.912;2024-01-30T06:09:28;7.60;99.90
40123;DHT22;25832;45.490;4.912;2024-01-30T06:11:54;7.60;99.90
40123;DHT22;25832;45.490;4.912;2024-01-30T06:14:20;7.60;99.90
40123;DHT22;25832;45.490;4.912;2024-01-30T06:16:46;7.60;99.90
40123;DHT22;25832;45.490;4.912;2024-01-30T06:19:11;7.60;99.90
40123;DHT22;25832;45.490;4.912;2024-01-30T06:21:37;7.60;99.90
40123;DHT22;25832;45.490;4.912;2024-01-30T06:24:04;7.60;99.90
40123;DHT22;25832;45.490;4.912;2024-01-30T06:26:30;7.70;99.90
40123;DHT22;25832;45.490;4.912;2024-01-30T06:28:55;7.70;99.90
40123;DHT22;25832;45.490;4.912;2024-01-30T06:31:21;7.70;99.90
40123;DHT22;25832;45.490;4.912;2024-01-30T06:33:47;7.70;99.90
40123;DHT22;25832;45.490;4.912;2024-01-30T06:36:13;7.70;99.90
40123;DHT22;25832;45.490;4.912;2024-01-30T06:38:39;7.70;99.90
40123;DHT22;25832;45.490;4.912;2024-01-30T06:41:05;7.70;99.90
40123;DHT22;25832;45.490;4.912;2024-01-30T06:43:30;7.70;99.90
40123;DHT22;25832;45.490;4.912;2024-01-30T06:45:56;7.70;99.90
40123;DHT22;25832;45.490;4.912;2024-01-30T06:48:21;7.70;99.90
40123;DHT22;25832;45.490;4.912;2024-01-30T06:50:47;7.70;99.90
40123;DHT22;25832;45.490;4.912;2024-01-30T06:53:14;7.70;99.90
40123;DHT22;25832;45.490;4.912;2024-01-30T06:55:40;7.60;99.90
40123;DHT22;25832;45.490;4.912;2024-01-30T06:58:05;7.60;99.90
40123;DHT22;25832;45.490;4.912;2024-01-30T07:00:31;7.60;99.90
40123;DHT22;25832;45.490;4.912;2024-01-30T07:02:57;7.60;99.90
40123;DHT22;25832;45.490;4.912;2024-01-30T07:05:22;7.60;99.90
40123;DHT22;25832;45.490;4.912;2024-01-30T07:07:48;7.60;99.90
40123;DHT22;25832;45.490;4.912;2024-01-30T07:10:14;7.60;99.90
40123;DHT22;25832;45.490;4.912;2024-01-30T07:12:40;7.60;99.90
40123;DHT22;25832;45.490;4.912;2024-01-30T07:15:05;7.60;99.90
40123;DHT22;25832;45.490;4.912;2024-01-30T07:17:34;7.60;99.90
40123;DHT22;25832;45.490;4.912;2024-01-30T07:20:00;7.60;99.90
40123;DHT22;25832;45.490;4.912;2024-01-30T07:22:26;7.60;99.90
40123;DHT22;25832;45.490;4.912;2024-01-30T07:24:52;7.60;99.90
40123;DHT22;25832;45.490;4.912;2024-01-30T07:27:17;7.60;99.90
40123;DHT22;25832;45.490;4.912;2024-01-30T07:29:43;7.60;99.90
40123;DHT22;25832;45.490;4.912;2024-01-30T07:32:09;7.60;99.90
40123;DHT22;25832;45.490;4.912;2024-01-30T07:34:35;7.70;99.90
40123;DHT22;25832;45.490;4.912;2024-01-30T07:37:01;7.80;99.90
40123;DHT22;25832;45.490;4.912;2024-01-30T07:39:28;7.90;99.90
40123;DHT22;25832;45.490;4.912;2024-01-30T07:41:53;7.90;99.90
40123;DHT22;25832;45.490;4.912;2024-01-30T07:44:20;7.90;99.90
40123;DHT22;25832;45.490;4.912;2024-01-30T07:46:45;7.90;99.90
40123;DHT22;25832;45.490;4.912;2024-01-30T07:49:11;7.80;99.90
40123;DHT22;25832;45.490;4.912;2024-01-30T07:51:36;7.80;99.90
40123;DHT22;25832;45.490;4.912;2024-01-30T07:54:02;7.80;99.90
40123;DHT22;25832;45.490;4.912;2024-01-30T07:56:28;7.90;99.90
40123;DHT22;25832;45.490;4.912;2024-01-30T07:58:53;7.80;99.90
40123;DHT22;25832;45.490;4.912;2024-01-30T08:01:19;8.00;99.90
40123;DHT22;25832;45.490;4.912;2024-01-30T08:03:45;7.90;99.90
40123;DHT22;25832;45.490;4.912;2024-01-30T08:06:10;7.90;99.90
40123;DHT22;25832;45.490;4.912;2024-01-30T08:08:36;8.00;99.90
40123;DHT22;25832;45.490;4.912;2024-01-30T08:11:03;8.10;99.90
40123;DHT22;25832;45.490;4.912;2024-01-30T08:13:29;8.10;99.90
40123;DHT22;25832;45.490;4.912;2024-01-30T08:15:54;8.30;99.90
40123;DHT22;25832;45.490;4.912;2024-01-30T08:18:20;8.30;99.90
40123;DHT22;25832;45.490;4.912;2024-01-30T08:20:45;8.40;99.90
40123;DHT22;25832;45.490;4.912;2024-01-30T08:23:11;8.40;99.90
40123;DHT22;25832;45.490;4.912;2024-01-30T08:25:37;8.50;99.90
40123;DHT22;25832;45.490;4.912;2024-01-30T08:28:03;8.60;99.90
40123;DHT22;25832;45.490;4.912;2024-01-30T08:30:29;8.60;99.90
40123;DHT22;25832;45.490;4.912;2024-01-30T08:32:55;8.60;99.90
40123;DHT22;25832;45.490;4.912;2024-01-30T08:35:20;8.70;99.90
40123;DHT22;25832;45.490;4.912;2024-01-30T08:37:46;8.80;99.90
40123;DHT22;25832;45.490;4.912;2024-01-30T08:40:11;8.90;99.90
40123;DHT22;25832;45.490;4.912;2024-01-30T08:42:37;9.00;99.90
40123;DHT22;25832;45.490;4.912;2024-01-30T08:45:03;9.00;99.90
40123;DHT22;25832;45.490;4.912;2024-01-30T08:47:30;9.10;99.90
40123;DHT22;25832;45.490;4.912;2024-01-30T08:49:56;9.20;99.90
40123;DHT22;25832;45.490;4.912;2024-01-30T08:52:21;9.30;99.90
40123;DHT22;25832;45.490;4.912;2024-01-30T08:54:47;9.40;99.90
40123;DHT22;25832;45.490;4.912;2024-01-30T08:57:13;9.40;99.90
40123;DHT22;25832;45.490;4.912;2024-01-30T08:59:38;9.50;99.90
40123;DHT22;25832;45.490;4.912;2024-01-30T09:02:04;9.50;99.90
40123;DHT22;25832;45.490;4.912;2024-01-30T09:04:30;9.50;99.90
40123;DHT22;25832;45.490;4.912;2024-01-30T09:06:56;9.50;99.90
40123;DHT22;25832;45.490;4.912;2024-01-30T09:09:21;9.50;99.90
40123;DHT22;25832;45.490;4.912;2024-01-30T09:11:47;9.60;99.90
40123;DHT22;25832;45.490;4.912;2024-01-30T09:14:13;9.50;99.90
40123;DHT22;25832;45.490;4.912;2024-01-30T09:16:38;9.50;99.90
40123;DHT22;25832;45.490;4.912;2024-01-30T09:19:04;9.50;99.90
40123;DHT22;25832;45.490;4.912;2024-01-30T09:21:30;9.50;99.90
40123;DHT22;25832;45.490;4.912;2024-01-30T09:24:02;9.50;99.90
40123;DHT22;25832;45.490;4.912;2024-01-30T09:26:29;9.60;99.90
40123;DHT22;25832;45.490;4.912;2024-01-30T09:28:55;9.60;99.90
40123;DHT22;25832;45.490;4.912;2024-01-30T09:31:20;9.60;99.90
40123;DHT22;25832;45.490;4.912;2024-01-30T09:33:46;9.60;99.90
40123;DHT22;25832;45.490;4.912;2024-01-30T09:36:13;9.60;99.90
40123;DHT22;25832;45.490;4.912;2024-01-30T09:38:41;9.70;99.90
40123;DHT22;25832;45.490;4.912;2024-01-30T09:41:09;9.70;99.90
40123;DHT22;25832;45.490;4.912;2024-01-30T09:43:38;9.70;99.90
40123;DHT22;25832;45.490;4.912;2024-01-30T09:46:05;9.80;99.90
40123;DHT22;25832;45.490;4.912;2024-01-30T09:48:33;9.80;99.90
40123;DHT22;25832;45.490;4.912;2024-01-30T09:50:59;9.90;99.90
40123;DHT22;25832;45.490;4.912;2024-01-30T09:53:25;9.90;99.90
40123;DHT22;25832;45.490;4.912;2024-01-30T09:55:51;10.00;99.90
40123;DHT22;25832;45.490;4.912;2024-01-30T09:58:17;10.00;99.90
40123;DHT22;25832;45.490;4.912;2024-01-30T10:00:43;10.10;99.90
40123;DHT22;25832;45.490;4.912;2024-01-30T10:03:09;10.20;99.90
40123;DHT22;25832;45.490;4.912;2024-01-30T10:05:36;10.30;99.90
40123;DHT22;25832;45.490;4.912;2024-01-30T10:08:06;10.40;99.90
40123;DHT22;25832;45.490;4.912;2024-01-30T10:10:34;10.60;99.90
40123;DHT22;25832;45.490;4.912;2024-01-30T10:13:00;10.70;99.90
40123;DHT22;25832;45.490;4.912;2024-01-30T10:15:28;10.90;99.90
40123;DHT22;25832;45.490;4.912;2024-01-30T10:17:53;10.90;99.90
40123;DHT22;25832;45.490;4.912;2024-01-30T10:20:19;11.00;99.90
40123;DHT22;25832;45.490;4.912;2024-01-30T10:22:47;11.00;99.90
40123;DHT22;25832;45.490;4.912;2024-01-30T10:25:13;11.10;99.90
40123;DHT22;25832;45.490;4.912;2024-01-30T10:27:40;11.10;99.90
40123;DHT22;25832;45.490;4.912;2024-01-30T10:30:06;11.10;99.90
40123;DHT22;25832;45.490;4.912;2024-01-30T10:32:32;11.10;99.90
40123;DHT22;25832;45.490;4.912;2024-01-30T10:34:58;11.10;99.90
40123;DHT22;25832;45.490;4.912;2024-01-30T10:37:25;11.10;99.90
40123;DHT22;25832;45.490;4.912;2024-01-30T10:39:53;11.20;99.90
40123;DHT22;25832;45.490;4.912;2024-01-30T10:42:20;11.30;99.90
40123;DHT22;25832;45.490;4.912;2024-01-30T10:47:26;11.40;99.90
40123;DHT22;25832;45.490;4.912;2024-01-30T10:49:54;11.50;99.90
40123;DHT22;25832;45.490;4.912;2024-01-30T10:52:20;11.50;99.90
40123;DHT22;25832;45.490;4.912;2024-01-30T10:54:46;11.50;99.90
40123;DHT22;25832;45.490;4.912;2024-01-30T10:57:13;11.60;99.90
40123;DHT22;25832;45.490;4.912;2024-01-30T10:59:41;11.60;99.90
40123;DHT22;25832;45.490;4.912;2024-01-30T11:02:08;11.70;99.90
40123;DHT22;25832;45.490;4.912;2024-01-30T11:04:38;11.80;99.90
40123;DHT22;25832;45.490;4.912;2024-01-30T11:07:27;11.90;99.90
40123;DHT22;25832;45.490;4.912;2024-01-30T11:09:59;12.00;99.90
40123;DHT22;25832;45.490;4.912;2024-01-30T11:12:30;12.00;99.90
40123;DHT22;25832;45.490;4.912;2024-01-30T11:15:15;12.10;99.90
40123;DHT22;25832;45.490;4.912;2024-01-30T11:20:21;12.30;99.90
40123;DHT22;25832;45.490;4.912;2024-01-30T11:22:50;12.40;99.90
40123;DHT22;25832;45.490;4.912;2024-01-30T11:25:18;12.40;99.90
40123;DHT22;25832;45.490;4.912;2024-01-30T11:27:45;12.50;99.90
40123;DHT22;25832;45.490;4.912;2024-01-30T11:30:27;12.50;99.90
40123;DHT22;25832;45.490;4.912;2024-01-30T11:33:12;12.60;99.90
40123;DHT22;25832;45.490;4.912;2024-01-30T11:35:40;12.60;99.90
40123;DHT22;25832;45.490;4.912;2024-01-30T11:38:07;12.70;99.90
40123;DHT22;25832;45.490;4.912;2024-01-30T11:40:34;12.80;99.90
40123;DHT22;25832;45.490;4.912;2024-01-30T11:43:01;12.80;99.90
40123;DHT22;25832;45.490;4.912;2024-01-30T11:45:28;12.90;99.90
40123;DHT22;25832;45.490;4.912;2024-01-30T11:47:54;13.00;99.90
40123;DHT22;25832;45.490;4.912;2024-01-30T11:50:20;13.00;99.90
40123;DHT22;25832;45.490;4.912;2024-01-30T11:52:50;13.10;99.90
40123;DHT22;25832;45.490;4.912;2024-01-30T11:55:15;13.20;99.90
40123;DHT22;25832;45.490;4.912;2024-01-30T11:57:41;13.30;99.90
40123;DHT22;25832;45.490;4.912;2024-01-30T12:00:17;13.40;99.90
40123;DHT22;25832;45.490;4.912;2024-01-30T12:02:44;13.40;99.90
40123;DHT22;25832;45.490;4.912;2024-01-30T12:05:14;13.40;99.90
40123;DHT22;25832;45.490;4.912;2024-01-30T12:07:39;13.40;99.90
40123;DHT22;25832;45.490;4.912;2024-01-30T12:10:05;13.50;99.90
40123;DHT22;25832;45.490;4.912;2024-01-30T12:12:33;13.60;99.90
40123;DHT22;25832;45.490;4.912;2024-01-30T12:14:59;13.60;99.90
40123;DHT22;25832;45.490;4.912;2024-01-30T12:17:31;13.70;99.90
40123;DHT22;25832;45.490;4.912;2024-01-30T12:20:10;13.80;99.90
40123;DHT22;25832;45.490;4.912;2024-01-30T12:25:03;13.70;99.30
40123;DHT22;25832;45.490;4.912;2024-01-30T12:27:29;13.60;99.10
40123;DHT22;25832;45.490;4.912;2024-01-30T12:29:56;13.70;98.90
40123;DHT22;25832;45.490;4.912;2024-01-30T12:32:23;13.80;98.60
40123;DHT22;25832;45.490;4.912;2024-01-30T12:34:49;13.90;98.60
40123;DHT22;25832;45.490;4.912;2024-01-30T12:37:15;13.90;97.80
40123;DHT22;25832;45.490;4.912;2024-01-30T12:39:45;13.90;98.00
40123;DHT22;25832;45.490;4.912;2024-01-30T12:42:11;14.00;98.00
40123;DHT22;25832;45.490;4.912;2024-01-30T12:44:36;14.10;98.80
40123;DHT22;25832;45.490;4.912;2024-01-30T12:47:05;14.10;96.70
40123;DHT22;25832;45.490;4.912;2024-01-30T12:49:31;14.20;96.90
40123;DHT22;25832;45.490;4.912;2024-01-30T12:51:57;14.10;97.20
40123;DHT22;25832;45.490;4.912;2024-01-30T12:54:23;14.20;96.70
40123;DHT22;25832;45.490;4.912;2024-01-30T12:56:49;14.20;96.80
40123;DHT22;25832;45.490;4.912;2024-01-30T12:59:15;14.20;96.80
40123;DHT22;25832;45.490;4.912;2024-01-30T13:01:41;14.20;97.10
40123;DHT22;25832;45.490;4.912;2024-01-30T13:04:07;14.30;96.50
40123;DHT22;25832;45.490;4.912;2024-01-30T13:06:32;14.30;96.10
40123;DHT22;25832;45.490;4.912;2024-01-30T13:08:58;14.30;95.80
40123;DHT22;25832;45.490;4.912;2024-01-30T13:11:24;14.30;95.70
40123;DHT22;25832;45.490;4.912;2024-01-30T13:13:51;14.30;96.00
40123;DHT22;25832;45.490;4.912;2024-01-30T13:16:17;14.20;96.60
40123;DHT22;25832;45.490;4.912;2024-01-30T13:18:43;14.10;96.80
40123;DHT22;25832;45.490;4.912;2024-01-30T13:21:09;14.10;96.70
40123;DHT22;25832;45.490;4.912;2024-01-30T13:23:35;14.10;96.90
40123;DHT22;25832;45.490;4.912;2024-01-30T13:26:00;14.20;95.90
40123;DHT22;25832;45.490;4.912;2024-01-30T13:28:26;14.10;96.20
40123;DHT22;25832;45.490;4.912;2024-01-30T13:30:52;14.20;96.30
40123;DHT22;25832;45.490;4.912;2024-01-30T13:33:17;14.20;96.30
40123;DHT22;25832;45.490;4.912;2024-01-30T13:35:43;14.20;96.10
40123;DHT22;25832;45.490;4.912;2024-01-30T13:38:09;14.10;95.90
40123;DHT22;25832;45.490;4.912;2024-01-30T13:40:34;14.10;96.00
40123;DHT22;25832;45.490;4.912;2024-01-30T13:43:00;14.20;96.40
40123;DHT22;25832;45.490;4.912;2024-01-30T13:45:26;14.40;96.10
40123;DHT22;25832;45.490;4.912;2024-01-30T13:47:51;14.50;95.60
40123;DHT22;25832;45.490;4.912;2024-01-30T13:50:17;14.50;95.40
40123;DHT22;25832;45.490;4.912;2024-01-30T13:52:43;14.50;95.80
40123;DHT22;25832;45.490;4.912;2024-01-30T13:55:09;14.60;95.60
40123;DHT22;25832;45.490;4.912;2024-01-30T13:57:36;14.60;94.30
40123;DHT22;25832;45.490;4.912;2024-01-30T14:00:03;14.60;93.80
40123;DHT22;25832;45.490;4.912;2024-01-30T14:02:30;14.60;94.10
40123;DHT22;25832;45.490;4.912;2024-01-30T14:04:56;14.60;94.30
40123;DHT22;25832;45.490;4.912;2024-01-30T14:07:22;14.50;94.30
40123;DHT22;25832;45.490;4.912;2024-01-30T14:09:48;14.40;93.40
40123;DHT22;25832;45.490;4.912;2024-01-30T14:12:14;14.30;94.20
40123;DHT22;25832;45.490;4.912;2024-01-30T14:14:40;14.20;93.90
40123;DHT22;25832;45.490;4.912;2024-01-30T14:17:06;14.20;94.50
40123;DHT22;25832;45.490;4.912;2024-01-30T14:19:33;14.20;94.60
40123;DHT22;25832;45.490;4.912;2024-01-30T14:21:59;14.20;94.80
40123;DHT22;25832;45.490;4.912;2024-01-30T14:24:25;14.20;94.50
40123;DHT22;25832;45.490;4.912;2024-01-30T14:26:51;14.00;94.40
40123;DHT22;25832;45.490;4.912;2024-01-30T14:29:16;14.00;94.40
40123;DHT22;25832;45.490;4.912;2024-01-30T14:31:42;14.00;94.40
40123;DHT22;25832;45.490;4.912;2024-01-30T14:34:08;14.00;95.00
40123;DHT22;25832;45.490;4.912;2024-01-30T14:36:38;14.00;94.70
40123;DHT22;25832;45.490;4.912;2024-01-30T14:39:04;14.00;94.40
40123;DHT22;25832;45.490;4.912;2024-01-30T14:41:32;14.10;95.00
40123;DHT22;25832;45.490;4.912;2024-01-30T14:43:57;14.10;94.60
40123;DHT22;25832;45.490;4.912;2024-01-30T14:46:23;14.10;94.40
40123;DHT22;25832;45.490;4.912;2024-01-30T14:48:49;14.10;94.00
40123;DHT22;25832;45.490;4.912;2024-01-30T14:51:17;14.20;94.20
40123;DHT22;25832;45.490;4.912;2024-01-30T14:53:43;14.20;94.30
40123;DHT22;25832;45.490;4.912;2024-01-30T14:56:08;14.20;94.10
40123;DHT22;25832;45.490;4.912;2024-01-30T14:58:34;14.10;94.40
40123;DHT22;25832;45.490;4.912;2024-01-30T15:01:00;14.10;94.90
40123;DHT22;25832;45.490;4.912;2024-01-30T15:03:27;14.20;94.50
40123;DHT22;25832;45.490;4.912;2024-01-30T15:05:54;14.20;94.90
40123;DHT22;25832;45.490;4.912;2024-01-30T15:08:21;14.10;94.50
40123;DHT22;25832;45.490;4.912;2024-01-30T15:10:46;14.00;95.00
40123;DHT22;25832;45.490;4.912;2024-01-30T15:13:12;14.00;95.20
40123;DHT22;25832;45.490;4.912;2024-01-30T15:15:38;14.00;95.40
40123;DHT22;25832;45.490;4.912;2024-01-30T15:18:04;13.80;95.80
40123;DHT22;25832;45.490;4.912;2024-01-30T15:20:29;13.80;95.60
40123;DHT22;25832;45.490;4.912;2024-01-30T15:22:57;13.80;96.00
40123;DHT22;25832;45.490;4.912;2024-01-30T15:25:22;13.80;96.60
40123;DHT22;25832;45.490;4.912;2024-01-30T15:27:48;13.70;96.20
40123;DHT22;25832;45.490;4.912;2024-01-30T15:30:14;13.70;96.70
40123;DHT22;25832;45.490;4.912;2024-01-30T15:32:40;13.60;96.60
40123;DHT22;25832;45.490;4.912;2024-01-30T15:35:06;13.60;96.70
40123;DHT22;25832;45.490;4.912;2024-01-30T15:37:32;13.60;96.80
40123;DHT22;25832;45.490;4.912;2024-01-30T15:39:58;13.60;97.20
40123;DHT22;25832;45.490;4.912;2024-01-30T15:42:23;13.50;97.30